Terminal Aerodrome Forecast
Issued by NWS Louisville, KY

Home | Current Version | Previous Version | Text Only | Print | Product List | Glossary On
Versions: 1 2 3 4 5 6 7 8 9 10 11 12 13 14 15
000
FTUS43 KLMK 201123
TAFBWG
TAF
KBWG 201123Z 2012/2112 15003KT P6SM BKN090
      TEMPO 2012/2015 BKN035
     FM201700 19010KT P6SM BKN250
     FM210100 20003KT P6SM BKN040
     FM210500 22003KT 4SM BR OVC007=

USA.gov is the U.S. government's official web portal to all federal, state and local government web resources and services.